createdAt,value
2024-04-26T00:01:43.650Z,12.22
2024-04-26T00:04:13.544Z,12.23
2024-04-26T00:06:45.372Z,12.26
2024-04-26T00:09:15.207Z,12.32
2024-04-26T00:11:47.706Z,12.36
2024-04-26T00:14:17.535Z,12.31
2024-04-26T00:16:47.379Z,12.34
2024-04-26T00:19:17.328Z,12.31
2024-04-26T00:21:47.238Z,12.27
2024-04-26T00:24:20.336Z,12.27
2024-04-26T00:26:53.042Z,12.25
2024-04-26T00:29:23.002Z,12.23
2024-04-26T00:31:52.907Z,12.28
2024-04-26T00:34:22.849Z,12.32
2024-04-26T00:36:52.685Z,12.27
2024-04-26T00:39:22.493Z,12.36
2024-04-26T00:41:54.997Z,12.37
2024-04-26T00:44:24.962Z,12.42
2024-04-26T00:46:54.817Z,12.45
2024-04-26T00:49:24.632Z,12.49
2024-04-26T00:51:54.431Z,12.47
2024-04-26T00:54:25.189Z,12.44
2024-04-26T00:56:58.985Z,12.48
2024-04-26T00:59:28.950Z,12.53
2024-04-26T01:01:58.858Z,12.49
2024-04-26T01:04:28.668Z,12.52
2024-04-26T01:06:58.495Z,12.53
2024-04-26T01:09:28.356Z,12.44
2024-04-26T01:12:00.902Z,12.45
2024-04-26T01:14:32.299Z,12.41
2024-04-26T01:17:02.133Z,12.45
2024-04-26T01:19:31.906Z,12.49
2024-04-26T01:22:04.710Z,12.47
2024-04-26T01:24:37.103Z,12.51
2024-04-26T01:27:07.075Z,12.51
2024-04-26T01:29:36.855Z,12.56
2024-04-26T01:32:06.727Z,12.55
2024-04-26T01:34:36.765Z,12.59
2024-04-26T01:37:06.650Z,12.52
2024-04-26T01:39:39.121Z,12.57
2024-04-26T01:42:08.954Z,12.61
2024-04-26T01:44:38.960Z,12.62
2024-04-26T01:47:09.377Z,12.63
2024-04-26T01:49:39.344Z,12.63
2024-04-26T01:52:09.148Z,12.62
2024-04-26T01:54:41.618Z,12.64
2024-04-26T01:57:09.015Z,12.63
2024-04-26T01:59:39.753Z,12.61
2024-04-26T02:02:06.972Z,12.63
2024-04-26T02:04:36.971Z,12.55
2024-04-26T02:07:04.275Z,12.45
2024-04-26T02:09:34.104Z,12.49
2024-04-26T02:12:04.027Z,12.44
2024-04-26T02:14:33.999Z,12.44
2024-04-26T02:17:01.240Z,12.49
2024-04-26T02:19:31.026Z,12.54
2024-04-26T02:21:58.214Z,12.55
2024-04-26T02:24:27.984Z,12.56
2024-04-26T02:26:57.857Z,12.54
2024-04-26T02:29:30.332Z,12.58
2024-04-26T02:32:00.197Z,12.54
2024-04-26T02:34:31.588Z,12.52
2024-04-26T02:37:01.430Z,12.52
2024-04-26T02:39:31.264Z,12.49
2024-04-26T02:42:01.141Z,12.46
2024-04-26T02:44:34.024Z,12.40
2024-04-26T02:47:03.875Z,12.33
2024-04-26T02:49:33.744Z,12.24
2024-04-26T02:52:03.510Z,12.28
2024-04-26T02:54:33.294Z,12.28
2024-04-26T02:57:04.004Z,12.24
2024-04-26T02:59:36.570Z,12.25
2024-04-26T03:02:06.477Z,12.27
2024-04-26T03:04:36.288Z,12.32
2024-04-26T03:07:06.065Z,12.39
2024-04-26T03:09:35.874Z,12.40
2024-04-26T03:12:05.842Z,12.40
2024-04-26T03:14:38.396Z,12.42
2024-04-26T03:17:08.591Z,12.46
2024-04-26T03:19:38.402Z,12.37
2024-04-26T03:22:08.205Z,12.35
2024-04-26T03:24:37.999Z,12.23
2024-04-26T03:27:07.979Z,12.11
2024-04-26T03:29:40.629Z,12.05
2024-04-26T03:32:10.565Z,11.95
2024-04-26T03:34:40.390Z,11.89
2024-04-26T03:37:10.179Z,11.70
2024-04-26T03:39:39.988Z,11.62
2024-04-26T03:42:09.882Z,11.61
2024-04-26T03:44:43.571Z,11.61
2024-04-26T03:47:13.381Z,11.52
2024-04-26T03:49:43.391Z,11.54
2024-04-26T03:52:13.278Z,11.51
2024-04-26T03:54:43.029Z,11.42
2024-04-26T03:57:12.861Z,11.38
2024-04-26T03:59:45.327Z,11.39
2024-04-26T04:02:15.182Z,11.40
2024-04-26T04:04:45.128Z,11.28
2024-04-26T04:07:14.946Z,11.40
2024-04-26T04:09:45.369Z,11.45
2024-04-26T04:12:15.717Z,11.40
2024-04-26T04:14:48.441Z,11.48
2024-04-26T04:17:18.377Z,11.45
2024-04-26T04:19:48.155Z,11.51
2024-04-26T04:22:18.018Z,11.63
2024-04-26T04:24:48.301Z,11.75
2024-04-26T04:27:18.171Z,12.63
2024-04-26T04:29:50.721Z,14.96
2024-04-26T04:32:20.528Z,17.28
2024-04-26T04:34:50.494Z,19.39
2024-04-26T04:37:20.535Z,20.63
2024-04-26T04:39:50.336Z,21.66
2024-04-26T04:42:20.139Z,22.58
2024-04-26T04:44:52.614Z,23.71
2024-04-26T04:47:22.652Z,23.60
2024-04-26T04:49:52.564Z,24.28
2024-04-26T04:52:22.349Z,23.71
2024-04-26T04:54:52.148Z,24.56
2024-04-26T04:57:21.950Z,24.18
2024-04-26T04:59:54.442Z,23.59
2024-04-26T05:02:24.382Z,23.63
2024-04-26T05:04:54.258Z,22.54
2024-04-26T05:07:26.586Z,23.71
2024-04-26T05:09:58.049Z,24.78
2024-04-26T05:12:27.912Z,24.92
2024-04-26T05:15:03.711Z,26.17
2024-04-26T05:17:33.811Z,27.34
2024-04-26T05:20:03.764Z,28.24
2024-04-26T05:22:33.515Z,28.13
2024-04-26T05:25:03.306Z,28.42
2024-04-26T05:27:33.098Z,27.96
2024-04-26T05:30:05.837Z,28.65
2024-04-26T05:32:35.794Z,28.06
2024-04-26T05:35:05.800Z,28.80
2024-04-26T05:37:39.051Z,29.98
2024-04-26T05:40:12.422Z,29.73
2024-04-26T05:42:42.292Z,30.35
2024-04-26T05:45:14.789Z,28.79
2024-04-26T05:47:44.672Z,28.84
2024-04-26T05:50:14.544Z,29.43
2024-04-26T05:52:44.411Z,29.89
2024-04-26T05:55:14.198Z,29.65
2024-04-26T05:57:44.028Z,29.34
2024-04-26T06:00:16.817Z,28.54
2024-04-26T06:02:49.036Z,28.18
2024-04-26T06:05:19.030Z,28.45
2024-04-26T06:07:48.852Z,28.01
2024-04-26T06:10:18.765Z,28.22
2024-04-26T06:12:51.361Z,26.47
2024-04-26T06:15:26.440Z,24.38
2024-04-26T06:17:56.368Z,24.10
2024-04-26T06:20:27.162Z,23.24
2024-04-26T06:22:57.000Z,23.88
2024-04-26T06:25:26.796Z,25.32
2024-04-26T06:27:56.581Z,26.66
2024-04-26T06:30:29.066Z,27.24
2024-04-26T06:32:59.083Z,26.62
2024-04-26T06:35:29.156Z,26.50
2024-04-26T06:37:59.794Z,24.79
2024-04-26T06:40:29.592Z,24.33
2024-04-26T06:42:59.574Z,23.42
2024-04-26T06:45:32.071Z,23.24
2024-04-26T06:48:02.203Z,22.10
2024-04-26T06:50:32.261Z,22.35
2024-04-26T06:53:02.183Z,22.31
2024-04-26T06:55:32.055Z,23.74
2024-04-26T06:58:01.852Z,24.81
2024-04-26T07:00:34.258Z,25.58
2024-04-26T07:03:04.332Z,25.42
2024-04-26T07:05:34.414Z,25.08
2024-04-26T07:08:04.239Z,24.64
2024-04-26T07:10:33.982Z,24.73
2024-04-26T07:13:03.850Z,25.42
2024-04-26T07:15:36.252Z,25.26
2024-04-26T07:18:09.127Z,25.72
2024-04-26T07:20:39.066Z,26.61
2024-04-26T07:23:08.929Z,26.43
2024-04-26T07:25:38.691Z,26.67
2024-04-26T07:28:10.026Z,25.28
2024-04-26T07:30:44.638Z,25.26
2024-04-26T07:33:14.631Z,24.56
2024-04-26T07:35:44.700Z,23.84
2024-04-26T07:41:26.223Z,-144.18
2024-04-26T07:43:56.337Z,-144.18
2024-04-26T07:46:26.144Z,-144.18
2024-04-26T07:48:56.698Z,-144.18
2024-04-26T07:51:26.450Z,-144.18
2024-04-26T07:53:55.976Z,-144.18
2024-04-26T07:56:28.201Z,-144.18
2024-04-26T07:58:57.742Z,-144.18
2024-04-26T08:01:27.254Z,-144.18
2024-04-26T08:03:56.940Z,-144.18
2024-04-26T08:06:27.375Z,-144.18
2024-04-26T08:08:57.043Z,-144.18
2024-04-26T08:11:29.296Z,-144.18
2024-04-26T08:13:59.167Z,-144.18
2024-04-26T08:16:29.812Z,-144.18
2024-04-26T08:19:00.504Z,-144.18
2024-04-26T08:21:30.459Z,-144.18
2024-04-26T08:24:03.151Z,-144.18
2024-04-26T08:26:36.132Z,-144.18
2024-04-26T08:29:05.747Z,-144.18
2024-04-26T08:31:35.254Z,-144.18
2024-04-26T08:34:04.943Z,-144.18
2024-04-26T08:36:34.832Z,-144.18
2024-04-26T08:39:04.428Z,-144.18
2024-04-26T08:41:36.705Z,-144.18
2024-04-26T08:44:06.805Z,-144.18
2024-04-26T08:46:44.349Z,-144.18
2024-04-26T08:49:18.576Z,-144.18
2024-04-26T08:51:48.798Z,-144.18
2024-04-26T08:54:19.958Z,-144.18
2024-04-26T08:56:52.518Z,-144.18
2024-04-26T08:59:22.036Z,-144.18
2024-04-26T09:01:52.011Z,-144.18
2024-04-26T09:04:21.721Z,-144.18
2024-04-26T09:06:51.266Z,-144.18
2024-04-26T09:09:21.280Z,-144.18
2024-04-26T09:11:53.606Z,-144.18
2024-04-26T09:14:23.213Z,-144.18
2024-04-26T09:16:52.792Z,-144.18
2024-04-26T09:19:22.566Z,-144.18
2024-04-26T09:21:52.267Z,-144.18
2024-04-26T09:24:22.177Z,-144.18
2024-04-26T09:26:54.730Z,-144.18
2024-04-26T09:29:24.592Z,-144.18
2024-04-26T09:32:09.438Z,-144.18
2024-04-26T09:34:46.999Z,-144.18
2024-04-26T09:37:16.893Z,-144.18
2024-04-26T09:39:46.697Z,-144.18
2024-04-26T09:42:21.882Z,-144.18
2024-04-26T09:44:51.992Z,-144.18
2024-04-26T09:47:21.970Z,-144.18
2024-04-26T09:49:52.480Z,-144.18
2024-04-26T09:52:22.565Z,-144.18
2024-04-26T09:54:52.351Z,-144.18
2024-04-26T09:57:24.795Z,-144.18
2024-04-26T09:59:54.839Z,-144.18
2024-04-26T10:02:25.226Z,-144.18
2024-04-26T10:04:55.788Z,-144.18
2024-04-26T10:07:26.433Z,-144.18
2024-04-26T10:10:00.013Z,-144.18
2024-04-26T10:12:33.099Z,-144.18
2024-04-26T10:15:13.263Z,-144.18
2024-04-26T10:17:53.273Z,-144.18
2024-04-26T10:20:23.214Z,-144.18
2024-04-26T10:23:05.945Z,-144.18
2024-04-26T10:25:36.372Z,-144.18
2024-04-26T10:28:15.422Z,-144.18
2024-04-26T10:30:48.804Z,-144.18
2024-04-26T10:33:18.851Z,-144.18
2024-04-26T10:35:49.052Z,-144.18
2024-04-26T10:38:19.246Z,-144.18
2024-04-26T10:40:49.594Z,-144.18
2024-04-26T10:43:29.820Z,-144.18
2024-04-26T10:46:00.903Z,-144.18
2024-04-26T10:48:33.728Z,-144.18
2024-04-26T10:51:06.272Z,-144.18
2024-04-26T10:53:36.389Z,-144.18
2024-04-26T10:56:06.778Z,-144.18
2024-04-26T10:58:42.659Z,-144.18
2024-04-26T11:01:21.807Z,-144.18
2024-04-26T11:03:53.700Z,-144.18
2024-04-26T11:06:36.976Z,-144.18
2024-04-26T11:09:10.963Z,-144.18
2024-04-26T11:11:41.108Z,-144.18
2024-04-26T11:14:13.690Z,-144.18
2024-04-26T11:16:45.036Z,-144.18
2024-04-26T11:19:15.046Z,-144.18
2024-04-26T11:21:47.306Z,-144.18
2024-04-26T11:24:17.777Z,-144.18
2024-04-26T11:26:47.681Z,-144.18
2024-04-26T11:29:20.224Z,-144.18
2024-04-26T11:31:50.166Z,-144.18
2024-04-26T11:34:20.396Z,-144.18
2024-04-26T11:36:52.434Z,-144.18
2024-04-26T11:39:22.383Z,-144.18
2024-04-26T11:41:52.289Z,-144.18
2024-04-26T11:44:25.051Z,-144.18
2024-04-26T11:46:54.901Z,-144.18
2024-04-26T11:49:26.715Z,-144.18
2024-04-26T11:51:58.170Z,-144.18
2024-04-26T11:54:28.089Z,-144.18
2024-04-26T11:56:58.974Z,-144.18
2024-04-26T11:59:32.546Z,-144.18
2024-04-26T12:02:02.344Z,-144.18
2024-04-26T12:04:32.275Z,-144.18
2024-04-26T12:07:02.667Z,-144.18
2024-04-26T12:09:32.534Z,-144.18
2024-04-26T12:12:02.949Z,-144.18
2024-04-26T12:14:35.541Z,-144.18
2024-04-26T12:17:05.535Z,-144.18
2024-04-26T12:19:36.969Z,-144.18
2024-04-26T12:22:06.782Z,-144.18
2024-04-26T12:24:36.604Z,-144.18
2024-04-26T12:27:11.780Z,-144.18
2024-04-26T12:29:45.548Z,-144.18
2024-04-26T12:32:15.404Z,-144.18
2024-04-26T12:34:45.543Z,-144.18
2024-04-26T12:37:15.568Z,-144.18
2024-04-26T12:39:49.777Z,-144.18
2024-04-26T12:42:19.646Z,-144.18
2024-04-26T12:44:53.446Z,-144.18
2024-04-26T12:47:26.407Z,-144.18
2024-04-26T12:49:56.301Z,-144.18
2024-04-26T12:52:27.639Z,-144.18
2024-04-26T12:58:44.222Z,-144.18
2024-04-26T13:01:19.654Z,-144.18
2024-04-26T13:03:49.651Z,-144.18
2024-04-26T13:06:20.265Z,-144.18
2024-04-26T13:08:50.426Z,-144.18
2024-04-26T13:11:23.739Z,-144.18
2024-04-26T13:13:55.419Z,-144.18
2024-04-26T13:16:27.891Z,-144.18
2024-04-26T13:18:58.326Z,-144.18
2024-04-26T13:21:29.177Z,-144.18
2024-04-26T13:23:59.178Z,-144.18
2024-04-26T13:26:29.905Z,-144.18
2024-04-26T13:28:59.761Z,-144.18
2024-04-26T13:31:32.178Z,-144.18
2024-04-26T13:34:02.056Z,-144.18
2024-04-26T13:36:31.987Z,-144.18
2024-04-26T13:39:01.851Z,-144.18
2024-04-26T13:41:31.776Z,-144.18
2024-04-26T13:44:01.559Z,-144.18
2024-04-26T13:46:33.974Z,-144.18
2024-04-26T13:49:03.930Z,-144.18
2024-04-26T13:51:33.949Z,-144.18
2024-04-26T13:54:04.335Z,-144.18
2024-04-26T13:56:35.466Z,-144.18
2024-04-26T13:59:05.316Z,-144.18
2024-04-26T14:01:37.789Z,-144.18
2024-04-26T14:04:08.319Z,-144.18
2024-04-26T14:06:38.301Z,-144.18
2024-04-26T14:09:11.198Z,-144.18
2024-04-26T14:11:44.318Z,-144.18
2024-04-26T14:14:14.215Z,-144.18
2024-04-26T14:16:46.647Z,-144.18
2024-04-26T14:19:17.949Z,-144.18
2024-04-26T14:21:47.948Z,-144.18
2024-04-26T14:24:18.103Z,-144.18
2024-04-26T14:26:47.949Z,-144.18
2024-04-26T14:29:17.822Z,-144.18
2024-04-26T14:31:50.767Z,-144.18
2024-04-26T14:34:20.577Z,-144.18
2024-04-26T14:36:51.186Z,-144.18
2024-04-26T14:39:23.551Z,-144.18
2024-04-26T14:41:53.422Z,-144.18
2024-04-26T14:44:23.202Z,-144.18
2024-04-26T14:46:56.006Z,-144.18
2024-04-26T14:49:25.889Z,-144.18
2024-04-26T14:51:55.844Z,-144.18
2024-04-26T14:54:25.648Z,-144.18
2024-04-26T14:56:55.462Z,-144.18
2024-04-26T14:59:25.243Z,-144.18
2024-04-26T15:01:57.839Z,-144.18
2024-04-26T15:04:27.878Z,-144.18
2024-04-26T15:06:57.697Z,-144.18
2024-04-26T15:09:27.504Z,-144.18
2024-04-26T15:11:58.045Z,-144.18
2024-04-26T15:14:27.864Z,-144.18
2024-04-26T15:17:01.475Z,-144.18
2024-04-26T15:19:31.368Z,-144.18
2024-04-26T15:22:01.185Z,-144.18
2024-04-26T15:24:31.018Z,-144.18
2024-04-26T15:27:00.813Z,-144.18
2024-04-26T15:29:33.323Z,-144.18
2024-04-26T15:32:05.793Z,-144.18
2024-04-26T15:34:35.641Z,-144.18
2024-04-26T15:37:05.417Z,-144.18
2024-04-26T15:39:37.803Z,-144.18
2024-04-26T15:42:07.954Z,-144.18
2024-04-26T15:44:39.463Z,-144.18
2024-04-26T15:47:13.114Z,-144.18
2024-04-26T15:49:42.968Z,-144.18
2024-04-26T15:52:12.800Z,-144.18
2024-04-26T15:54:42.608Z,-144.18
2024-04-26T15:57:12.404Z,-144.18
2024-04-26T15:59:42.183Z,-144.18
2024-04-26T16:02:14.641Z,-144.18
2024-04-26T16:04:44.404Z,-144.18
2024-04-26T16:07:14.442Z,-144.18
2024-04-26T16:09:44.394Z,-144.18
2024-04-26T16:12:14.666Z,-144.18
2024-04-26T16:14:47.882Z,-144.18
2024-04-26T16:17:21.590Z,-144.18
2024-04-26T16:19:51.637Z,-144.18
2024-04-26T16:22:24.413Z,-144.18
2024-04-26T16:24:54.434Z,-144.18
2024-04-26T16:27:24.299Z,-144.18
2024-04-26T16:29:56.518Z,-144.18
2024-04-26T16:32:31.148Z,-144.18
2024-04-26T16:35:01.031Z,-144.18
2024-04-26T16:37:30.883Z,-144.18
2024-04-26T16:40:00.683Z,-144.18
2024-04-26T16:42:34.442Z,-144.18
2024-04-26T16:45:04.701Z,-144.18
2024-04-26T16:47:37.347Z,-144.18
2024-04-26T16:50:07.446Z,-144.18
2024-04-26T16:52:37.507Z,-144.18
2024-04-26T16:55:07.817Z,-144.18
2024-04-26T16:57:39.342Z,-144.18
2024-04-26T17:00:15.034Z,-144.18
2024-04-26T17:02:47.541Z,-144.18
2024-04-26T17:05:17.530Z,-144.18
2024-04-26T17:07:47.408Z,-144.18
2024-04-26T17:10:17.407Z,-144.18
2024-04-26T17:12:47.320Z,-144.18
2024-04-26T17:15:18.570Z,-144.18
2024-04-26T17:17:51.104Z,-144.18
2024-04-26T17:20:21.009Z,-144.18
2024-04-26T17:22:51.308Z,-144.18
2024-04-26T17:25:21.171Z,-144.18
2024-04-26T17:27:51.037Z,-144.18
2024-04-26T17:30:20.845Z,-144.18
2024-04-26T17:32:53.391Z,-144.18
2024-04-26T17:35:23.192Z,-144.18
2024-04-26T17:37:53.134Z,-144.18
2024-04-26T17:40:23.016Z,-144.18
2024-04-26T17:42:52.863Z,-144.18
2024-04-26T17:45:22.673Z,-144.18
2024-04-26T17:47:55.297Z,-144.18
2024-04-26T17:50:25.187Z,-144.18
2024-04-26T17:52:57.870Z,-144.18
2024-04-26T17:55:27.759Z,-144.18
2024-04-26T17:57:57.811Z,-144.18
2024-04-26T18:00:29.225Z,-144.18
2024-04-26T18:03:01.922Z,-144.18
2024-04-26T18:05:31.802Z,-144.18
2024-04-26T18:08:05.155Z,-144.18
2024-04-26T18:10:35.133Z,-144.18
2024-04-26T18:13:04.982Z,-144.18
2024-04-26T18:15:34.780Z,-144.18
2024-04-26T18:18:08.105Z,-144.18
2024-04-26T18:20:38.115Z,-144.18
2024-04-26T18:23:08.166Z,-144.18
2024-04-26T18:25:37.998Z,-144.18
2024-04-26T18:28:08.306Z,-144.18
2024-04-26T18:30:38.119Z,-144.18
2024-04-26T18:33:14.953Z,-144.18
2024-04-26T18:35:45.054Z,-144.18
2024-04-26T18:38:14.846Z,-144.18
2024-04-26T18:40:44.627Z,-144.18
2024-04-26T18:43:14.444Z,-144.18
2024-04-26T18:45:44.235Z,-144.18
2024-04-26T18:48:16.756Z,-144.18
2024-04-26T18:50:46.645Z,-144.18
2024-04-26T18:53:16.532Z,-144.18
2024-04-26T18:55:46.430Z,-144.18
2024-04-26T18:58:19.256Z,-144.18
2024-04-26T19:00:49.740Z,-144.18
2024-04-26T19:03:22.553Z,-144.18
2024-04-26T19:05:52.400Z,-144.18
2024-04-26T19:08:22.486Z,-144.18
2024-04-26T19:10:52.385Z,-144.18
2024-04-26T19:13:23.725Z,-144.18
2024-04-26T19:15:53.569Z,-144.18
2024-04-26T19:18:26.215Z,-144.18
2024-04-26T19:20:59.051Z,-144.18
2024-04-26T19:23:28.875Z,-144.18
2024-04-26T19:25:58.733Z,-144.18
2024-04-26T19:28:33.175Z,-144.18
2024-04-26T19:31:03.330Z,-144.18
2024-04-26T19:33:36.131Z,-144.18
2024-04-26T19:36:06.493Z,-144.18
2024-04-26T19:38:37.366Z,-144.18
2024-04-26T19:41:07.430Z,-144.18
2024-04-26T19:43:37.323Z,-144.18
2024-04-26T19:46:07.413Z,-144.18
2024-04-26T19:48:40.668Z,-144.18
2024-04-26T19:51:10.834Z,-144.18
2024-04-26T19:53:56.299Z,-144.18
2024-04-26T19:56:26.072Z,-144.18
2024-04-26T19:58:55.910Z,-144.18
2024-04-26T20:01:29.362Z,-144.18
2024-04-26T20:04:02.457Z,-144.18
2024-04-26T20:06:32.398Z,-144.18
2024-04-26T20:09:02.198Z,-144.18
2024-04-26T20:11:33.073Z,-144.18
2024-04-26T20:14:03.092Z,-144.18
2024-04-26T20:16:32.986Z,-144.18
2024-04-26T20:19:08.260Z,-144.18
2024-04-26T20:21:38.072Z,-144.18
2024-04-26T20:24:08.104Z,-144.18
2024-04-26T20:26:37.880Z,-144.18
2024-04-26T20:29:07.732Z,-144.18
2024-04-26T20:31:37.601Z,-144.18
2024-04-26T20:34:10.225Z,-144.18
2024-04-26T20:36:44.061Z,-144.18
2024-04-26T20:39:13.860Z,-144.18
2024-04-26T20:41:43.738Z,-144.18
2024-04-26T20:44:13.562Z,-144.18
2024-04-26T20:46:43.419Z,-144.18
2024-04-26T20:49:17.065Z,-144.18
2024-04-26T20:51:46.976Z,-144.18
2024-04-26T20:54:17.094Z,-144.18
2024-04-26T20:56:46.898Z,-144.18
2024-04-26T20:59:16.733Z,-144.18
2024-04-26T21:01:46.996Z,-144.18
2024-04-26T21:04:19.577Z,-144.18
2024-04-26T21:06:51.676Z,-144.18
2024-04-26T21:09:18.869Z,-144.18
2024-04-26T21:11:48.745Z,-144.18
2024-04-26T21:14:18.565Z,-144.18
2024-04-26T21:16:48.437Z,-144.18
2024-04-26T21:19:20.873Z,-144.18
2024-04-26T21:21:50.666Z,-144.18
2024-04-26T21:24:20.479Z,-144.18
2024-04-26T21:26:50.312Z,-144.18
2024-04-26T21:29:20.112Z,-144.18
2024-04-26T21:31:50.013Z,-144.18
2024-04-26T21:34:22.500Z,-144.18
2024-04-26T21:36:52.334Z,-144.18
2024-04-26T21:39:22.475Z,-144.18
2024-04-26T21:41:52.412Z,-144.18
2024-04-26T21:44:22.217Z,-144.18
2024-04-26T21:46:53.325Z,-144.18
2024-04-26T21:49:25.907Z,-144.18
2024-04-26T21:51:55.747Z,-144.18
2024-04-26T21:54:25.580Z,-144.18
2024-04-26T21:56:55.369Z,-144.18
2024-04-26T21:59:25.238Z,-144.18
2024-04-26T22:01:55.107Z,-144.18
2024-04-26T22:04:27.701Z,-144.18
2024-04-26T22:06:57.594Z,-144.18
2024-04-26T22:09:27.800Z,-144.18
2024-04-26T22:12:00.694Z,-144.18
2024-04-26T22:14:30.580Z,-144.18
2024-04-26T22:17:00.632Z,-144.18
2024-04-26T22:19:33.283Z,-144.18
2024-04-26T22:22:04.103Z,-144.18
2024-04-26T22:24:34.576Z,-144.18
2024-04-26T22:27:04.497Z,-144.18
2024-04-26T22:29:34.263Z,-144.18
2024-04-26T22:32:05.756Z,-144.18
2024-04-26T22:34:40.509Z,-144.18
2024-04-26T22:37:10.347Z,-144.18
2024-04-26T22:39:40.506Z,-144.18
2024-04-26T22:42:10.562Z,-144.18
2024-04-26T22:44:40.365Z,-144.18
2024-04-26T22:47:10.311Z,-144.18
2024-04-26T22:49:42.836Z,-144.18
2024-04-26T22:52:09.720Z,-144.18
2024-04-26T22:54:39.228Z,-144.18
2024-04-26T22:57:08.802Z,-144.18
2024-04-26T22:59:38.383Z,-144.18
2024-04-26T23:02:07.970Z,-144.18
2024-04-26T23:04:37.541Z,-144.18
2024-04-26T23:07:10.070Z,-144.18
2024-04-26T23:09:39.838Z,-144.18
2024-04-26T23:12:09.804Z,-144.18
2024-04-26T23:14:39.559Z,-144.18
2024-04-26T23:17:09.390Z,-144.18
2024-04-26T23:19:39.278Z,-144.18
2024-04-26T23:22:11.864Z,-144.18
2024-04-26T23:24:41.661Z,-144.18
2024-04-26T23:27:11.455Z,-144.18
2024-04-26T23:29:41.869Z,-144.18
2024-04-26T23:32:11.676Z,-144.18
2024-04-26T23:34:41.492Z,-144.18
2024-04-26T23:37:13.954Z,-144.18
2024-04-26T23:39:43.778Z,-144.18
2024-04-26T23:42:13.594Z,-144.18
2024-04-26T23:44:43.526Z,-144.18
2024-04-26T23:47:13.311Z,-144.18
2024-04-26T23:49:43.155Z,-144.18
2024-04-26T23:52:15.622Z,-144.18
2024-04-26T23:54:45.385Z,-144.18
2024-04-26T23:57:15.183Z,-144.18
2024-04-26T23:59:44.974Z,-144.18
